Terminal Aerodrome Forecast
Issued by NWS

Home | Current Version | Previous Version | Text Only | Print | Product List | Glossary On
Versions: 1 2 3 4 5 6 7 8 9 10 11 12 13 14 15 16 17 18 19 20 21 22 23 24 25 26 27 28
000
FTUS44 KLIX 110614 AAA
TAFGPT
TAF AMD
KGPT 110614Z 1106/1206 00000KT 3SM BR BKN001
      TEMPO 1109/1113 1/2SM FG VV001
     FM111400 25008KT P6SM SKC=

USA.gov is the U.S. government's official web portal to all federal, state and local government web resources and services.